sensor_id;sensor_type;location;lat;lon;timestamp;P1;P2;P0
49343;PMS5003;35210;41.606;-87.602;2023-09-12T00:00:52;2.00;2.00;1.00
49343;PMS5003;35210;41.606;-87.602;2023-09-12T00:03:22;1.00;1.00;0.60
49343;PMS5003;35210;41.606;-87.602;2023-09-12T00:05:51;1.00;1.00;0.60
49343;PMS5003;35210;41.606;-87.602;2023-09-12T00:08:19;1.00;1.00;0.00
49343;PMS5003;35210;41.606;-87.602;2023-09-12T00:10:57;0.60;0.60;0.00
49343;PMS5003;35210;41.606;-87.602;2023-09-12T00:13:27;1.00;1.00;1.00
49343;PMS5003;35210;41.606;-87.602;2023-09-12T00:15:55;3.00;1.80;1.00
49343;PMS5003;35210;41.606;-87.602;2023-09-12T00:18:25;1.00;1.00;0.60
49343;PMS5003;35210;41.606;-87.602;2023-09-12T00:20:53;1.00;1.00;0.40
49343;PMS5003;35210;41.606;-87.602;2023-09-12T00:23:22;1.00;1.00;1.00
49343;PMS5003;35210;41.606;-87.602;2023-09-12T00:25:50;3.00;3.00;1.00
49343;PMS5003;35210;41.606;-87.602;2023-09-12T00:28:18;1.60;1.60;1.20
49343;PMS5003;35210;41.606;-87.602;2023-09-12T00:30:47;4.20;3.00;1.60
49343;PMS5003;35210;41.606;-87.602;2023-09-12T00:33:16;2.40;1.80;1.00
49343;PMS5003;35210;41.606;-87.602;2023-09-12T00:35:46;2.00;2.00;1.00
49343;PMS5003;35210;41.606;-87.602;2023-09-12T00:38:14;2.00;2.00;1.00
49343;PMS5003;35210;41.606;-87.602;2023-09-12T00:40:42;3.00;2.20;1.40
49343;PMS5003;35210;41.606;-87.602;2023-09-12T00:43:10;3.00;3.00;2.00
49343;PMS5003;35210;41.606;-87.602;2023-09-12T00:45:39;5.40;4.80;3.00
49343;PMS5003;35210;41.606;-87.602;2023-09-12T00:48:08;4.00;4.00;3.00
49343;PMS5003;35210;41.606;-87.602;2023-09-12T00:50:38;3.00;3.00;2.80
49343;PMS5003;35210;41.606;-87.602;2023-09-12T00:53:09;6.00;6.00;4.00
49343;PMS5003;35210;41.606;-87.602;2023-09-12T00:55:38;6.40;5.20;4.00
49343;PMS5003;35210;41.606;-87.602;2023-09-12T00:58:11;6.80;5.00;3.00
49343;PMS5003;35210;41.606;-87.602;2023-09-12T01:00:41;7.20;6.00;4.60
49343;PMS5003;35210;41.606;-87.602;2023-09-12T01:03:10;8.00;7.00;4.20
49343;PMS5003;35210;41.606;-87.602;2023-09-12T01:05:38;7.40;5.80;5.20
49343;PMS5003;35210;41.606;-87.602;2023-09-12T01:08:10;6.00;6.00;4.80
49343;PMS5003;35210;41.606;-87.602;2023-09-12T01:10:39;8.40;7.00;4.40
49343;PMS5003;35210;41.606;-87.602;2023-09-12T01:13:11;7.80;7.80;5.00
49343;PMS5003;35210;41.606;-87.602;2023-09-12T01:15:40;6.60;6.60;4.00
49343;PMS5003;35210;41.606;-87.602;2023-09-12T01:18:09;11.20;7.60;5.60
49343;PMS5003;35210;41.606;-87.602;2023-09-12T01:20:38;7.40;7.00;6.20
49343;PMS5003;35210;41.606;-87.602;2023-09-12T01:23:24;6.60;6.60;5.20
49343;PMS5003;35210;41.606;-87.602;2023-09-12T01:29:04;8.40;8.40;6.60
49343;PMS5003;35210;41.606;-87.602;2023-09-12T01:31:35;13.80;11.80;7.00
49343;PMS5003;35210;41.606;-87.602;2023-09-12T01:34:09;11.00;11.00;7.60
49343;PMS5003;35210;41.606;-87.602;2023-09-12T01:36:38;12.40;12.40;9.60
49343;PMS5003;35210;41.606;-87.602;2023-09-12T01:39:06;13.80;11.80;7.00
49343;PMS5003;35210;41.606;-87.602;2023-09-12T01:41:35;13.80;13.80;9.20
49343;PMS5003;35210;41.606;-87.602;2023-09-12T01:44:09;13.80;12.00;8.40
49343;PMS5003;35210;41.606;-87.602;2023-09-12T01:46:39;15.00;14.20;8.40
49343;PMS5003;35210;41.606;-87.602;2023-09-12T01:49:10;14.60;13.20;9.80
49343;PMS5003;35210;41.606;-87.602;2023-09-12T01:51:42;13.40;13.40;8.60
49343;PMS5003;35210;41.606;-87.602;2023-09-12T01:54:11;15.40;13.60;9.80
49343;PMS5003;35210;41.606;-87.602;2023-09-12T01:56:39;13.40;13.40;9.00
49343;PMS5003;35210;41.606;-87.602;2023-09-12T01:59:10;15.40;13.00;9.20
49343;PMS5003;35210;41.606;-87.602;2023-09-12T02:01:39;9.00;9.00;7.00
49343;PMS5003;35210;41.606;-87.602;2023-09-12T02:04:07;18.20;15.80;11.20
49343;PMS5003;35210;41.606;-87.602;2023-09-12T02:06:35;15.60;14.40;10.40
49343;PMS5003;35210;41.606;-87.602;2023-09-12T02:09:04;16.00;13.80;10.60
49343;PMS5003;35210;41.606;-87.602;2023-09-12T02:11:33;13.60;12.40;9.20
49343;PMS5003;35210;41.606;-87.602;2023-09-12T02:14:01;16.80;14.00;9.00
49343;PMS5003;35210;41.606;-87.602;2023-09-12T02:16:31;15.80;13.00;10.00
49343;PMS5003;35210;41.606;-87.602;2023-09-12T02:18:59;15.20;13.40;10.00
49343;PMS5003;35210;41.606;-87.602;2023-09-12T02:21:27;14.40;12.80;9.00
49343;PMS5003;35210;41.606;-87.602;2023-09-12T02:23:55;15.00;14.00;9.00
49343;PMS5003;35210;41.606;-87.602;2023-09-12T02:26:23;10.80;9.00;6.40
49343;PMS5003;35210;41.606;-87.602;2023-09-12T02:28:52;16.60;16.20;10.80
49343;PMS5003;35210;41.606;-87.602;2023-09-12T02:31:20;13.40;13.40;9.40
49343;PMS5003;35210;41.606;-87.602;2023-09-12T02:33:49;18.20;16.20;11.00
49343;PMS5003;35210;41.606;-87.602;2023-09-12T02:36:17;9.20;9.20;6.80
49343;PMS5003;35210;41.606;-87.602;2023-09-12T02:38:46;13.60;12.60;9.00
49343;PMS5003;35210;41.606;-87.602;2023-09-12T02:41:14;9.20;9.20;7.00
49343;PMS5003;35210;41.606;-87.602;2023-09-12T02:43:42;10.20;9.00;6.40
49343;PMS5003;35210;41.606;-87.602;2023-09-12T02:46:10;9.80;9.80;7.40
49343;PMS5003;35210;41.606;-87.602;2023-09-12T02:48:38;8.80;7.60;5.40
49343;PMS5003;35210;41.606;-87.602;2023-09-12T02:51:08;10.40;9.60;7.20
49343;PMS5003;35210;41.606;-87.602;2023-09-12T02:53:36;10.60;7.20;5.20
49343;PMS5003;35210;41.606;-87.602;2023-09-12T02:56:05;9.00;7.80;5.60
49343;PMS5003;35210;41.606;-87.602;2023-09-12T02:58:33;7.40;7.40;5.00
49343;PMS5003;35210;41.606;-87.602;2023-09-12T03:01:02;6.80;6.80;4.00
49343;PMS5003;35210;41.606;-87.602;2023-09-12T03:03:31;7.00;5.00;4.00
49343;PMS5003;35210;41.606;-87.602;2023-09-12T03:06:00;10.00;8.00;6.00
49343;PMS5003;35210;41.606;-87.602;2023-09-12T03:08:30;8.60;5.80;3.00
49343;PMS5003;35210;41.606;-87.602;2023-09-12T03:10:59;9.00;7.00;4.20
49343;PMS5003;35210;41.606;-87.602;2023-09-12T03:13:28;8.40;8.40;6.00
49343;PMS5003;35210;41.606;-87.602;2023-09-12T03:15:56;10.00;8.20;6.00
49343;PMS5003;35210;41.606;-87.602;2023-09-12T03:18:24;7.80;7.20;5.00
49343;PMS5003;35210;41.606;-87.602;2023-09-12T03:20:52;6.00;6.00;3.20
49343;PMS5003;35210;41.606;-87.602;2023-09-12T03:23:20;5.40;5.00;3.00
49343;PMS5003;35210;41.606;-87.602;2023-09-12T03:25:50;6.20;6.20;5.20
49343;PMS5003;35210;41.606;-87.602;2023-09-12T03:28:18;6.00;5.40;4.00
49343;PMS5003;35210;41.606;-87.602;2023-09-12T03:30:46;5.00;4.80;3.20
49343;PMS5003;35210;41.606;-87.602;2023-09-12T03:33:15;5.80;5.80;4.40
49343;PMS5003;35210;41.606;-87.602;2023-09-12T03:35:43;5.00;5.00;3.60
49343;PMS5003;35210;41.606;-87.602;2023-09-12T03:38:11;6.60;6.60;5.40
49343;PMS5003;35210;41.606;-87.602;2023-09-12T03:40:39;6.00;6.00;4.00
49343;PMS5003;35210;41.606;-87.602;2023-09-12T03:43:09;6.00;5.00;4.00
49343;PMS5003;35210;41.606;-87.602;2023-09-12T03:45:37;8.20;5.00;2.80
49343;PMS5003;35210;41.606;-87.602;2023-09-12T03:48:05;3.00;1.60;0.00
49343;PMS5003;35210;41.606;-87.602;2023-09-12T03:50:33;9.60;7.60;4.60
49343;PMS5003;35210;41.606;-87.602;2023-09-12T03:53:01;8.80;8.80;5.40
49343;PMS5003;35210;41.606;-87.602;2023-09-12T03:55:30;12.80;9.20;6.20
49343;PMS5003;35210;41.606;-87.602;2023-09-12T03:57:59;8.60;7.60;6.00
49343;PMS5003;35210;41.606;-87.602;2023-09-12T04:00:28;8.00;8.00;6.40
49343;PMS5003;35210;41.606;-87.602;2023-09-12T04:02:57;10.80;10.80;5.80
49343;PMS5003;35210;41.606;-87.602;2023-09-12T04:05:25;17.80;15.00;8.60
49343;PMS5003;35210;41.606;-87.602;2023-09-12T04:07:53;19.80;18.20;13.20
49343;PMS5003;35210;41.606;-87.602;2023-09-12T04:10:22;15.80;14.60;9.60
49343;PMS5003;35210;41.606;-87.602;2023-09-12T04:12:50;16.00;14.60;10.20
49343;PMS5003;35210;41.606;-87.602;2023-09-12T04:15:18;18.60;16.40;11.40
49343;PMS5003;35210;41.606;-87.602;2023-09-12T04:17:49;14.80;13.00;8.80
49343;PMS5003;35210;41.606;-87.602;2023-09-12T04:20:17;16.20;15.20;10.40
49343;PMS5003;35210;41.606;-87.602;2023-09-12T04:22:46;17.40;16.00;11.20
49343;PMS5003;35210;41.606;-87.602;2023-09-12T04:25:14;13.80;10.00;7.20
49343;PMS5003;35210;41.606;-87.602;2023-09-12T04:27:45;17.20;17.20;12.80
49343;PMS5003;35210;41.606;-87.602;2023-09-12T04:30:13;19.20;14.60;7.20
49343;PMS5003;35210;41.606;-87.602;2023-09-12T04:32:41;13.60;12.80;8.60
49343;PMS5003;35210;41.606;-87.602;2023-09-12T04:35:11;20.00;17.80;11.00
49343;PMS5003;35210;41.606;-87.602;2023-09-12T04:37:39;17.00;17.00;10.80
49343;PMS5003;35210;41.606;-87.602;2023-09-12T04:40:07;16.80;14.60;7.60
49343;PMS5003;35210;41.606;-87.602;2023-09-12T04:42:36;14.20;14.00;10.00
49343;PMS5003;35210;41.606;-87.602;2023-09-12T04:45:04;15.40;15.40;11.00
49343;PMS5003;35210;41.606;-87.602;2023-09-12T04:47:33;15.80;15.80;9.80
49343;PMS5003;35210;41.606;-87.602;2023-09-12T04:50:01;21.20;21.20;12.80
49343;PMS5003;35210;41.606;-87.602;2023-09-12T04:52:31;20.40;20.00;12.60
49343;PMS5003;35210;41.606;-87.602;2023-09-12T04:54:59;16.00;13.80;11.20
49343;PMS5003;35210;41.606;-87.602;2023-09-12T04:57:29;18.20;18.20;11.40
49343;PMS5003;35210;41.606;-87.602;2023-09-12T04:59:58;17.20;15.60;10.80
49343;PMS5003;35210;41.606;-87.602;2023-09-12T05:02:27;19.40;16.20;11.40
49343;PMS5003;35210;41.606;-87.602;2023-09-12T05:04:55;17.40;17.20;10.20
49343;PMS5003;35210;41.606;-87.602;2023-09-12T05:07:23;20.80;17.60;11.00
49343;PMS5003;35210;41.606;-87.602;2023-09-12T05:09:53;17.60;13.80;8.60
49343;PMS5003;35210;41.606;-87.602;2023-09-12T05:12:21;17.20;15.40;9.20
49343;PMS5003;35210;41.606;-87.602;2023-09-12T05:14:49;13.40;12.20;9.20
49343;PMS5003;35210;41.606;-87.602;2023-09-12T05:17:17;17.20;16.60;9.40
49343;PMS5003;35210;41.606;-87.602;2023-09-12T05:19:45;14.20;12.40;7.60
49343;PMS5003;35210;41.606;-87.602;2023-09-12T05:22:14;13.80;10.00;7.60
49343;PMS5003;35210;41.606;-87.602;2023-09-12T05:24:42;18.80;16.40;10.40
49343;PMS5003;35210;41.606;-87.602;2023-09-12T05:27:12;15.00;14.00;9.80
49343;PMS5003;35210;41.606;-87.602;2023-09-12T05:29:41;17.80;14.20;9.20
49343;PMS5003;35210;41.606;-87.602;2023-09-12T05:32:09;18.00;15.80;10.20
49343;PMS5003;35210;41.606;-87.602;2023-09-12T05:34:37;18.80;15.00;8.60
49343;PMS5003;35210;41.606;-87.602;2023-09-12T05:37:05;16.60;14.20;10.00
49343;PMS5003;35210;41.606;-87.602;2023-09-12T05:39:33;17.40;14.80;10.00
49343;PMS5003;35210;41.606;-87.602;2023-09-12T05:42:01;15.80;15.40;9.20
49343;PMS5003;35210;41.606;-87.602;2023-09-12T05:44:31;14.40;13.40;8.00
49343;PMS5003;35210;41.606;-87.602;2023-09-12T05:46:59;14.20;14.00;9.00
49343;PMS5003;35210;41.606;-87.602;2023-09-12T05:49:27;19.20;16.40;10.40
49343;PMS5003;35210;41.606;-87.602;2023-09-12T05:51:55;17.80;14.40;9.20
49343;PMS5003;35210;41.606;-87.602;2023-09-12T05:54:23;15.40;13.60;9.80
49343;PMS5003;35210;41.606;-87.602;2023-09-12T05:56:51;20.00;18.00;9.80
49343;PMS5003;35210;41.606;-87.602;2023-09-12T05:59:20;14.80;12.80;7.80
49343;PMS5003;35210;41.606;-87.602;2023-09-12T06:01:50;15.60;15.60;11.00
49343;PMS5003;35210;41.606;-87.602;2023-09-12T06:04:18;18.80;15.60;11.00
49343;PMS5003;35210;41.606;-87.602;2023-09-12T06:06:46;18.00;17.20;11.80
49343;PMS5003;35210;41.606;-87.602;2023-09-12T06:09:14;17.00;15.60;10.00
49343;PMS5003;35210;41.606;-87.602;2023-09-12T06:11:42;17.80;15.00;11.00
49343;PMS5003;35210;41.606;-87.602;2023-09-12T06:14:10;17.40;17.00;11.20
49343;PMS5003;35210;41.606;-87.602;2023-09-12T06:16:38;15.60;15.60;10.00
49343;PMS5003;35210;41.606;-87.602;2023-09-12T06:19:08;21.80;15.80;11.80
49343;PMS5003;35210;41.606;-87.602;2023-09-12T06:21:36;17.20;15.20;10.20
49343;PMS5003;35210;41.606;-87.602;2023-09-12T06:24:10;11.20;10.00;6.60
49343;PMS5003;35210;41.606;-87.602;2023-09-12T06:26:39;16.80;15.60;10.20
49343;PMS5003;35210;41.606;-87.602;2023-09-12T06:29:08;15.00;15.00;8.00
49343;PMS5003;35210;41.606;-87.602;2023-09-12T06:31:36;17.60;17.60;12.00
49343;PMS5003;35210;41.606;-87.602;2023-09-12T06:34:05;17.00;16.60;11.00
49343;PMS5003;35210;41.606;-87.602;2023-09-12T06:36:35;15.40;15.00;10.00
49343;PMS5003;35210;41.606;-87.602;2023-09-12T06:39:04;21.40;19.40;12.40
49343;PMS5003;35210;41.606;-87.602;2023-09-12T06:41:32;18.00;17.00;12.00
49343;PMS5003;35210;41.606;-87.602;2023-09-12T06:44:00;19.33;17.00;10.00
49343;PMS5003;35210;41.606;-87.602;2023-09-12T06:46:30;16.40;13.60;9.60
49343;PMS5003;35210;41.606;-87.602;2023-09-12T06:49:01;22.80;20.00;14.00
49343;PMS5003;35210;41.606;-87.602;2023-09-12T06:51:31;19.40;18.00;13.60
49343;PMS5003;35210;41.606;-87.602;2023-09-12T06:54:00;20.00;17.20;12.20
49343;PMS5003;35210;41.606;-87.602;2023-09-12T06:56:28;30.60;28.40;15.00
49343;PMS5003;35210;41.606;-87.602;2023-09-12T06:58:57;19.40;18.40;11.20
49343;PMS5003;35210;41.606;-87.602;2023-09-12T07:01:25;21.00;18.40;12.80
49343;PMS5003;35210;41.606;-87.602;2023-09-12T07:03:54;19.60;16.00;11.40
49343;PMS5003;35210;41.606;-87.602;2023-09-12T07:06:22;23.00;22.80;13.60
49343;PMS5003;35210;41.606;-87.602;2023-09-12T07:08:52;22.20;19.20;11.20
49343;PMS5003;35210;41.606;-87.602;2023-09-12T07:11:20;26.00;23.20;14.20
49343;PMS5003;35210;41.606;-87.602;2023-09-12T07:13:49;19.40;18.00;11.40
49343;PMS5003;35210;41.606;-87.602;2023-09-12T07:16:17;17.60;17.40;11.00
49343;PMS5003;35210;41.606;-87.602;2023-09-12T07:18:46;20.60;19.40;11.40
49343;PMS5003;35210;41.606;-87.602;2023-09-12T07:21:15;18.00;16.00;12.00
49343;PMS5003;35210;41.606;-87.602;2023-09-12T07:23:43;20.20;17.40;11.00
49343;PMS5003;35210;41.606;-87.602;2023-09-12T07:26:13;20.60;17.60;12.00
49343;PMS5003;35210;41.606;-87.602;2023-09-12T07:28:42;18.60;16.80;12.60
49343;PMS5003;35210;41.606;-87.602;2023-09-12T07:31:10;18.00;17.00;11.80
49343;PMS5003;35210;41.606;-87.602;2023-09-12T07:33:38;18.80;16.00;9.40
49343;PMS5003;35210;41.606;-87.602;2023-09-12T07:36:06;15.40;14.40;8.40
49343;PMS5003;35210;41.606;-87.602;2023-09-12T07:38:34;21.20;16.80;11.20
49343;PMS5003;35210;41.606;-87.602;2023-09-12T07:41:03;17.60;15.80;9.20
49343;PMS5003;35210;41.606;-87.602;2023-09-12T07:43:33;16.40;16.00;11.00
49343;PMS5003;35210;41.606;-87.602;2023-09-12T07:46:01;16.00;14.60;9.00
49343;PMS5003;35210;41.606;-87.602;2023-09-12T07:48:30;16.80;16.20;8.60
49343;PMS5003;35210;41.606;-87.602;2023-09-12T07:50:58;17.40;17.40;11.00
49343;PMS5003;35210;41.606;-87.602;2023-09-12T07:53:27;18.60;17.60;11.60
49343;PMS5003;35210;41.606;-87.602;2023-09-12T07:55:59;15.00;14.00;9.80
49343;PMS5003;35210;41.606;-87.602;2023-09-12T07:58:27;20.60;18.60;13.20
49343;PMS5003;35210;41.606;-87.602;2023-09-12T08:00:56;18.20;16.80;11.80
49343;PMS5003;35210;41.606;-87.602;2023-09-12T08:03:25;17.20;15.60;10.20
49343;PMS5003;35210;41.606;-87.602;2023-09-12T08:05:56;17.40;15.60;9.80
49343;PMS5003;35210;41.606;-87.602;2023-09-12T08:08:24;14.40;14.40;9.60
49343;PMS5003;35210;41.606;-87.602;2023-09-12T08:10:52;16.00;16.00;10.00
49343;PMS5003;35210;41.606;-87.602;2023-09-12T08:13:21;13.20;13.20;9.00
49343;PMS5003;35210;41.606;-87.602;2023-09-12T08:15:49;14.20;14.20;8.80
49343;PMS5003;35210;41.606;-87.602;2023-09-12T08:18:18;13.80;12.80;9.00
49343;PMS5003;35210;41.606;-87.602;2023-09-12T08:20:47;10.80;10.20;8.00
49343;PMS5003;35210;41.606;-87.602;2023-09-12T08:23:15;11.20;10.40;7.40
49343;PMS5003;35210;41.606;-87.602;2023-09-12T08:25:43;10.60;10.00;5.80
49343;PMS5003;35210;41.606;-87.602;2023-09-12T08:28:11;13.60;12.80;8.00
49343;PMS5003;35210;41.606;-87.602;2023-09-12T08:30:39;11.00;10.40;6.00
49343;PMS5003;35210;41.606;-87.602;2023-09-12T08:33:07;12.80;12.80;8.00
49343;PMS5003;35210;41.606;-87.602;2023-09-12T08:35:36;16.00;13.40;9.00
49343;PMS5003;35210;41.606;-87.602;2023-09-12T08:38:05;12.80;11.60;8.20
49343;PMS5003;35210;41.606;-87.602;2023-09-12T08:40:34;10.80;10.80;7.80
49343;PMS5003;35210;41.606;-87.602;2023-09-12T08:43:02;11.40;9.40;7.00
49343;PMS5003;35210;41.606;-87.602;2023-09-12T08:45:30;9.00;9.00;7.00
49343;PMS5003;35210;41.606;-87.602;2023-09-12T08:47:59;10.40;9.60;6.40
49343;PMS5003;35210;41.606;-87.602;2023-09-12T08:50:28;13.20;10.20;6.60
49343;PMS5003;35210;41.606;-87.602;2023-09-12T08:53:01;12.20;11.20;7.80
49343;PMS5003;35210;41.606;-87.602;2023-09-12T08:55:29;10.20;9.80;6.60
49343;PMS5003;35210;41.606;-87.602;2023-09-12T08:57:59;12.20;12.20;7.40
49343;PMS5003;35210;41.606;-87.602;2023-09-12T09:00:29;8.80;8.80;6.00
49343;PMS5003;35210;41.606;-87.602;2023-09-12T09:02:58;10.00;8.80;6.40
49343;PMS5003;35210;41.606;-87.602;2023-09-12T09:05:27;10.60;10.00;7.80
49343;PMS5003;35210;41.606;-87.602;2023-09-12T09:07:56;11.60;11.60;8.60
49343;PMS5003;35210;41.606;-87.602;2023-09-12T09:10:27;12.20;11.00;8.00
49343;PMS5003;35210;41.606;-87.602;2023-09-12T09:12:57;11.80;11.20;7.20
49343;PMS5003;35210;41.606;-87.602;2023-09-12T09:15:26;13.80;10.00;6.00
49343;PMS5003;35210;41.606;-87.602;2023-09-12T09:17:56;11.20;10.40;7.00
49343;PMS5003;35210;41.606;-87.602;2023-09-12T09:20:26;8.00;8.00;5.00
49343;PMS5003;35210;41.606;-87.602;2023-09-12T09:23:01;10.40;9.60;6.00
49343;PMS5003;35210;41.606;-87.602;2023-09-12T09:25:33;13.20;11.80;7.00
49343;PMS5003;35210;41.606;-87.602;2023-09-12T09:28:03;11.80;11.60;6.00
49343;PMS5003;35210;41.606;-87.602;2023-09-12T09:30:39;12.20;11.40;7.20
49343;PMS5003;35210;41.606;-87.602;2023-09-12T09:33:12;6.60;6.00;3.00
49343;PMS5003;35210;41.606;-87.602;2023-09-12T09:35:41;13.40;11.20;6.80
49343;PMS5003;35210;41.606;-87.602;2023-09-12T09:38:09;8.40;7.20;6.80
49343;PMS5003;35210;41.606;-87.602;2023-09-12T09:40:43;12.40;11.40;6.20
49343;PMS5003;35210;41.606;-87.602;2023-09-12T09:43:11;10.60;10.40;6.60
49343;PMS5003;35210;41.606;-87.602;2023-09-12T09:45:43;9.80;9.00;6.60
49343;PMS5003;35210;41.606;-87.602;2023-09-12T09:48:17;9.20;8.80;5.40
49343;PMS5003;35210;41.606;-87.602;2023-09-12T09:50:46;7.80;7.60;5.60
49343;PMS5003;35210;41.606;-87.602;2023-09-12T09:53:14;10.60;9.80;6.60
49343;PMS5003;35210;41.606;-87.602;2023-09-12T09:55:44;11.60;10.40;7.00
49343;PMS5003;35210;41.606;-87.602;2023-09-12T09:58:14;11.40;9.00;7.60
49343;PMS5003;35210;41.606;-87.602;2023-09-12T10:00:43;9.80;8.80;6.20
49343;PMS5003;35210;41.606;-87.602;2023-09-12T10:03:13;12.00;8.60;6.20
49343;PMS5003;35210;41.606;-87.602;2023-09-12T10:05:46;7.80;7.80;6.00
49343;PMS5003;35210;41.606;-87.602;2023-09-12T10:08:16;6.40;6.00;3.40
49343;PMS5003;35210;41.606;-87.602;2023-09-12T10:10:48;10.20;10.20;7.20
49343;PMS5003;35210;41.606;-87.602;2023-09-12T10:13:18;9.80;8.80;6.00
49343;PMS5003;35210;41.606;-87.602;2023-09-12T10:15:52;11.20;9.80;7.20
49343;PMS5003;35210;41.606;-87.602;2023-09-12T10:18:23;12.00;10.40;7.00
49343;PMS5003;35210;41.606;-87.602;2023-09-12T10:20:58;10.00;8.80;5.40
49343;PMS5003;35210;41.606;-87.602;2023-09-12T10:23:34;13.40;10.80;8.20
49343;PMS5003;35210;41.606;-87.602;2023-09-12T10:26:11;10.60;9.60;6.60
49343;PMS5003;35210;41.606;-87.602;2023-09-12T10:28:40;12.60;11.20;7.00
49343;PMS5003;35210;41.606;-87.602;2023-09-12T10:31:10;10.60;10.60;7.00
49343;PMS5003;35210;41.606;-87.602;2023-09-12T10:33:40;10.00;7.40;5.80
49343;PMS5003;35210;41.606;-87.602;2023-09-12T10:36:19;11.60;10.20;7.00
49343;PMS5003;35210;41.606;-87.602;2023-09-12T10:38:49;10.60;9.40;6.80
49343;PMS5003;35210;41.606;-87.602;2023-09-12T10:41:18;9.60;9.60;6.00
49343;PMS5003;35210;41.606;-87.602;2023-09-12T10:43:48;12.20;10.60;8.00
49343;PMS5003;35210;41.606;-87.602;2023-09-12T10:46:20;10.00;10.00;6.60
49343;PMS5003;35210;41.606;-87.602;2023-09-12T10:48:49;13.60;9.60;7.00
49343;PMS5003;35210;41.606;-87.602;2023-09-12T10:51:20;9.40;9.40;6.80
49343;PMS5003;35210;41.606;-87.602;2023-09-12T10:53:49;7.60;6.80;4.60
49343;PMS5003;35210;41.606;-87.602;2023-09-12T10:56:19;12.80;9.80;6.00
49343;PMS5003;35210;41.606;-87.602;2023-09-12T10:59:10;10.60;10.40;5.40
49343;PMS5003;35210;41.606;-87.602;2023-09-12T11:01:41;9.80;9.00;6.00
49343;PMS5003;35210;41.606;-87.602;2023-09-12T11:07:02;9.20;8.20;6.00
49343;PMS5003;35210;41.606;-87.602;2023-09-12T11:10:19;11.60;10.40;6.60
49343;PMS5003;35210;41.606;-87.602;2023-09-12T11:12:49;11.00;10.00;6.40
49343;PMS5003;35210;41.606;-87.602;2023-09-12T11:15:19;8.00;8.00;6.00
49343;PMS5003;35210;41.606;-87.602;2023-09-12T11:17:48;12.00;9.40;6.80
49343;PMS5003;35210;41.606;-87.602;2023-09-12T11:20:17;9.60;9.60;6.60
49343;PMS5003;35210;41.606;-87.602;2023-09-12T11:22:48;11.00;9.40;6.40
49343;PMS5003;35210;41.606;-87.602;2023-09-12T11:25:16;8.40;8.00;6.00
49343;PMS5003;35210;41.606;-87.602;2023-09-12T11:30:31;9.20;9.20;5.80
49343;PMS5003;35210;41.606;-87.602;2023-09-12T11:33:02;10.80;10.80;6.00
49343;PMS5003;35210;41.606;-87.602;2023-09-12T11:35:36;14.80;13.80;8.20
49343;PMS5003;35210;41.606;-87.602;2023-09-12T11:38:09;9.80;9.80;5.80
49343;PMS5003;35210;41.606;-87.602;2023-09-12T11:40:42;11.40;8.80;6.80
49343;PMS5003;35210;41.606;-87.602;2023-09-12T11:43:19;11.00;10.40;6.80
49343;PMS5003;35210;41.606;-87.602;2023-09-12T11:45:49;8.40;8.00;5.40
49343;PMS5003;35210;41.606;-87.602;2023-09-12T11:48:18;15.40;11.20;7.40
49343;PMS5003;35210;41.606;-87.602;2023-09-12T11:50:50;11.00;11.00;7.80
49343;PMS5003;35210;41.606;-87.602;2023-09-12T11:53:22;9.20;9.20;7.60
49343;PMS5003;35210;41.606;-87.602;2023-09-12T11:55:52;8.40;8.40;6.80
49343;PMS5003;35210;41.606;-87.602;2023-09-12T11:58:22;12.80;9.80;6.60
49343;PMS5003;35210;41.606;-87.602;2023-09-12T12:00:52;8.00;8.00;6.00
49343;PMS5003;35210;41.606;-87.602;2023-09-12T12:03:22;13.00;12.80;7.80
49343;PMS5003;35210;41.606;-87.602;2023-09-12T12:05:53;11.40;11.20;7.00
49343;PMS5003;35210;41.606;-87.602;2023-09-12T12:08:24;12.40;12.40;7.60
49343;PMS5003;35210;41.606;-87.602;2023-09-12T12:10:53;11.80;11.60;7.00
49343;PMS5003;35210;41.606;-87.602;2023-09-12T12:13:22;9.80;8.80;4.20
49343;PMS5003;35210;41.606;-87.602;2023-09-12T12:15:50;12.00;10.00;7.00
49343;PMS5003;35210;41.606;-87.602;2023-09-12T12:18:18;16.80;11.20;6.60
49343;PMS5003;35210;41.606;-87.602;2023-09-12T12:20:46;15.80;13.20;8.80
49343;PMS5003;35210;41.606;-87.602;2023-09-12T12:23:14;13.60;13.60;9.20
49343;PMS5003;35210;41.606;-87.602;2023-09-12T12:25:44;17.00;14.40;9.80
49343;PMS5003;35210;41.606;-87.602;2023-09-12T12:28:12;17.20;16.20;11.20
49343;PMS5003;35210;41.606;-87.602;2023-09-12T12:30:41;17.00;14.20;9.00
49343;PMS5003;35210;41.606;-87.602;2023-09-12T12:33:09;13.20;13.20;9.40
49343;PMS5003;35210;41.606;-87.602;2023-09-12T12:35:37;14.80;14.60;8.00
49343;PMS5003;35210;41.606;-87.602;2023-09-12T12:38:05;12.40;11.40;8.60
49343;PMS5003;35210;41.606;-87.602;2023-09-12T12:40:37;15.00;13.00;8.40
49343;PMS5003;35210;41.606;-87.602;2023-09-12T12:43:07;14.60;13.40;10.40
49343;PMS5003;35210;41.606;-87.602;2023-09-12T12:45:52;14.60;13.60;10.40
49343;PMS5003;35210;41.606;-87.602;2023-09-12T12:48:29;19.20;16.60;10.40
49343;PMS5003;35210;41.606;-87.602;2023-09-12T12:50:58;15.00;14.40;9.00
49343;PMS5003;35210;41.606;-87.602;2023-09-12T12:53:38;15.40;12.60;9.40
49343;PMS5003;35210;41.606;-87.602;2023-09-12T12:56:06;18.40;15.80;11.40
49343;PMS5003;35210;41.606;-87.602;2023-09-12T12:58:36;13.40;13.40;9.80
49343;PMS5003;35210;41.606;-87.602;2023-09-12T13:01:04;11.40;10.60;7.40
49343;PMS5003;35210;41.606;-87.602;2023-09-12T13:03:32;15.40;13.60;9.40
49343;PMS5003;35210;41.606;-87.602;2023-09-12T13:06:00;15.20;14.20;9.60
49343;PMS5003;35210;41.606;-87.602;2023-09-12T13:08:28;18.80;15.20;11.00
49343;PMS5003;35210;41.606;-87.602;2023-09-12T13:10:56;14.40;13.00;10.00
49343;PMS5003;35210;41.606;-87.602;2023-09-12T13:13:24;16.40;14.20;10.20
49343;PMS5003;35210;41.606;-87.602;2023-09-12T13:15:54;13.60;12.80;6.60
49343;PMS5003;35210;41.606;-87.602;2023-09-12T13:18:22;11.40;11.20;9.00
49343;PMS5003;35210;41.606;-87.602;2023-09-12T13:20:50;18.40;14.00;9.40
49343;PMS5003;35210;41.606;-87.602;2023-09-12T13:23:18;12.80;12.20;9.00
49343;PMS5003;35210;41.606;-87.602;2023-09-12T13:25:46;17.80;16.60;11.40
49343;PMS5003;35210;41.606;-87.602;2023-09-12T13:28:14;17.60;16.20;11.20
49343;PMS5003;35210;41.606;-87.602;2023-09-12T13:30:43;16.00;15.20;10.60
49343;PMS5003;35210;41.606;-87.602;2023-09-12T13:33:13;16.00;14.20;10.20
49343;PMS5003;35210;41.606;-87.602;2023-09-12T13:35:42;16.20;14.80;10.20
49343;PMS5003;35210;41.606;-87.602;2023-09-12T13:38:10;16.00;14.60;7.80
49343;PMS5003;35210;41.606;-87.602;2023-09-12T13:40:39;14.20;14.20;10.80
49343;PMS5003;35210;41.606;-87.602;2023-09-12T13:43:08;18.00;16.00;12.60
49343;PMS5003;35210;41.606;-87.602;2023-09-12T13:45:37;22.40;19.00;13.00
49343;PMS5003;35210;41.606;-87.602;2023-09-12T13:48:05;14.40;14.40;11.00
49343;PMS5003;35210;41.606;-87.602;2023-09-12T13:50:36;16.40;15.40;12.00
49343;PMS5003;35210;41.606;-87.602;2023-09-12T13:53:04;17.40;15.00;10.20
49343;PMS5003;35210;41.606;-87.602;2023-09-12T13:55:33;18.80;17.80;12.20
49343;PMS5003;35210;41.606;-87.602;2023-09-12T13:58:01;16.80;16.80;12.00
49343;PMS5003;35210;41.606;-87.602;2023-09-12T14:00:30;15.40;13.60;10.40